Flight Track Log - Related Links

Times and Time Zones

All times are in EDT time to prevent confusion due to time zone crossing. See the N589H flight status page for this flight to view local times or setup timezone preferences in your user account.


Time Position Orientation Groundspeed Altitude Reporting Facility
EDT Latitude Longitude Course Direction KTS MPH feet Rate Location/Type
Tue 02:29:04 PM 27.9000 -82.6833 196° South 147 169 500  Level Tampa TRACON
Tue 02:30:04 PM 27.8500 -82.7000 196° South 166 191 2,100 1,700 Climbing Tampa TRACON
Tue 02:31:04 PM 27.8167 -82.7167 204° Southwest 183 211 3,900 2,000 Climbing Tampa TRACON
Tue 02:32:04 PM 27.7500 -82.7000 168° South 202 232 6,100 2,137 Climbing Tampa TRACON
Tue 02:34:29 PM 27.6211 -82.6831 173° South 207 238 11,200 2,058 Climbing Miami Center
Tue 02:35:31 PM 27.5592 -82.6756 174° South 217 250 13,200 1,887 Climbing Miami Center
Tue 02:36:33 PM 27.5006 -82.6550 163° South 224 258 15,100 1,935 Climbing Miami Center
Tue 02:37:35 PM 27.4644 -82.5761 117° Southeast 240 276 17,200 1,707 Climbing Miami Center
Tue 02:38:36 PM 27.4328 -82.5047 117° Southeast 245 282 18,600 1,561 Climbing Miami Center
Tue 02:39:38 PM 27.3986 -82.4286 117° Southeast 256 295 20,400 1,597 Climbing Miami Center
Tue 02:40:40 PM 27.3572 -82.3642 126° Southeast 266 306 21,900 1,512 Climbing Miami Center
Tue 02:41:41 PM 27.3006 -82.3011 135° Southeast 271 312 23,500 1,463 Climbing Miami Center
Tue 02:42:43 PM 27.2433 -82.2367 135° Southeast 274 315 24,900 1,258 Climbing Miami Center
Tue 02:43:45 PM 27.1856 -82.1700 134° Southeast 282 325 26,100 1,161 Climbing Miami Center
Tue 02:44:47 PM 27.1250 -82.1014 135° Southeast 291 335 27,300 1,122 Climbing Miami Center
Tue 02:45:48 PM 27.0697 -82.0383 135° Southeast 292 336 28,400 1,024 Climbing Miami Center
Tue 02:46:50 PM 27.0078 -81.9678 135° Southeast 301 346 29,400 871 Climbing Miami Center
Tue 02:47:52 PM 26.9528 -81.9064 135° Southeast 301 346 30,200 780 Climbing Miami Center
Tue 02:48:53 PM 26.8925 -81.8389 135° Southeast 305 351 31,000 829 Climbing Miami Center
Tue 02:49:55 PM 26.8303 -81.7681 135° Southeast 305 351 31,900 871 Climbing Miami Center
Tue 02:50:57 PM 26.7628 -81.6911 134° Southeast 304 350 32,800 488 Climbing Miami Center
Tue 02:51:58 PM 26.7003 -81.6211 135° Southeast 315 362 32,900 244 Climbing Miami Center
Tue 02:53:00 PM 26.6328 -81.5447 135° Southeast 328 377 33,300 484 Climbing Miami Center
Tue 02:54:02 PM 26.5639 -81.4683 135° Southeast 330 380 33,900 585 Climbing Miami Center
Tue 02:55:03 PM 26.5022 -81.3983 135° Southeast 330 380 34,500 488 Climbing Miami Center
Tue 02:56:05 PM 26.4397 -81.3289 135° Southeast 329 379 34,900 194 Climbing Miami Center
Tue 02:57:07 PM 26.3739 -81.2558 135° Southeast 331 381 34,900  Level Miami Center
Tue 02:58:08 PM 26.3056 -81.1803 135° Southeast 344 396 34,900  Level Miami Center
Tue 02:59:10 PM 26.2356 -81.1025 135° Southeast 352 405 34,900  Level Miami Center
Tue 03:00:11 PM 26.1494 -81.0072 135° Southeast 361 415 34,900  Level Miami Center
Tue 03:01:13 PM 26.0803 -80.9228 132° Southeast 366 421 34,900  Level Miami Center
Tue 03:02:14 PM 26.0531 -80.8139 106° East 365 420 34,900  Level Miami Center
Tue 03:03:16 PM 26.0253 -80.7058 106° East 364 419 34,900  Level Miami Center
Tue 03:04:18 PM 25.9939 -80.5986 108° East 364 419 34,900  Level Miami Center
Tue 03:05:19 PM 25.9625 -80.4894 108° East 366 421 34,900  Level Miami Center
Tue 03:06:21 PM 25.9297 -80.3800 108° East 368 423 34,900  Level Miami Center
Tue 03:07:22 PM 25.8969 -80.2711 108° East 369 425 34,900  Level Miami Center
Tue 03:08:24 PM 25.8647 -80.1617 108° East 370 426 34,900  Level Miami Center
Tue 03:09:25 PM 25.8325 -80.0514 108° East 375 432 34,900  Level Miami Center
Tue 03:10:27 PM 25.7939 -79.9194 108° East 374 430 34,900  Level Miami Center
Tue 03:11:28 PM 25.7608 -79.8111 109° East 372 428 34,900  Level Miami Center
Tue 03:12:30 PM 25.7278 -79.7022 109° East 373 429 34,900  Level Miami Center
Tue 03:13:31 PM 25.6958 -79.5922 108° East 373 429 34,900  Level Miami Center
Tue 03:14:33 PM 25.6625 -79.4833 109° East 374 430 34,900  Level Miami Center
Tue 03:15:34 PM 25.6292 -79.3750 109° East 374 430 34,900  Level Miami Center
Tue 03:16:36 PM 25.5972 -79.2661 108° East 372 428 34,900  Level Miami Center
Tue 03:17:38 PM 25.5619 -79.1569 110° East 375 432 34,900  Level Miami Center
Tue 03:18:39 PM 25.5217 -79.0256 109° East 375 432 34,900  Level Miami Center
Tue 03:19:41 PM 25.4861 -78.9139 109° East 376 433 34,900  Level Miami Center
Tue 03:20:43 PM 25.4544 -78.8047 108° East 375 432 34,900  Level Miami Center
Tue 03:21:44 PM 25.4203 -78.6964 109° East 374 430 34,900  Level Miami Center
Tue 03:22:46 PM 25.3831 -78.5783 109° East 372 428 34,900  Level Miami Center
Tue 03:23:47 PM 25.3500 -78.4711 109° East 368 423 34,900  Level Miami Center
Tue 03:24:49 PM 25.3178 -78.3636 108° East 366 421 34,900  Level Miami Center
Tue 03:25:51 PM 25.2833 -78.2569 110° East 367 422 34,900  Level Miami Center
Tue 03:26:52 PM 25.2453 -78.1397 110° East 367 422 34,900  Level Miami Center
Tue 03:27:54 PM 25.2136 -78.0328 108° East 367 422 34,900  Level Miami Center
Tue 03:28:56 PM 25.1797 -77.9261 109° East 367 422 34,900  Level Miami Center
Tue 03:29:57 PM 25.1453 -77.8192 110° East 369 425 34,900  Level Miami Center
Tue 03:30:59 PM 25.1114 -77.7117 109° East 370 426 34,900  Level Miami Center
Tue 03:32:01 PM 25.0733 -77.5942 110° East 370 426 34,900  Level Miami Center
Tue 03:33:02 PM 25.0431 -77.5044 110° East 370 426 34,900  Level Miami Center
Tue 03:34:04 PM 24.9972 -77.3886 114° Southeast 388 447 34,900  Level Miami Center
Tue 03:35:06 PM 24.9225 -77.2872 129° Southeast 380 437 34,900  Level Miami Center
Tue 03:36:07 PM 24.8611 -77.1936 126° Southeast 379 436 34,900  Level Miami Center
Tue 03:37:09 PM 24.8006 -77.0992 125° Southeast 377 434 34,900  Level Miami Center
Tue 03:38:11 PM 24.7317 -76.9961 126° Southeast 378 435 34,900  Level Miami Center
Tue 03:39:12 PM 24.6697 -76.9011 126° Southeast 379 436 34,900  Level Miami Center
Tue 03:40:14 PM 24.6078 -76.8050 125° Southeast 381 438 34,900  Level Miami Center
Tue 03:41:16 PM 24.5436 -76.7097 127° Southeast 384 442 34,900  Level Miami Center
Tue 03:42:17 PM 24.4753 -76.6047 126° Southeast 384 442 34,900  Level Miami Center
Tue 03:43:19 PM 24.4208 -76.5211 126° Southeast 386 444 34,900  Level Miami Center
Tue 03:44:21 PM 24.3572 -76.4256 126° Southeast 386 444 34,900  Level Miami Center
Tue 03:45:23 PM 24.2822 -76.3111 126° Southeast 385 443 34,900  Level Miami Center
Tue 03:46:24 PM 24.2192 -76.2158 126° Southeast 384 442 34,900  Level Miami Center
Tue 03:47:26 PM 24.1564 -76.1219 126° Southeast 384 442 34,900  Level Miami Center
Tue 03:48:28 PM 24.0928 -76.0267 126° Southeast 384 442 34,900  Level Miami Center
Tue 03:49:29 PM 24.0294 -75.9322 126° Southeast 384 442 34,900  Level Miami Center
Tue 03:50:31 PM 23.9658 -75.8369 126° Southeast 384 442 34,900  Level Miami Center
Tue 03:51:33 PM 23.9025 -75.7428 126° Southeast 384 442 34,900  Level Miami Center
Tue 03:52:34 PM 23.8386 -75.6475 126° Southeast 384 442 34,900  Level Miami Center
Tue 03:53:36 PM 23.7753 -75.5519 126° Southeast 384 442 34,900  Level Miami Center
Tue 03:54:38 PM 23.6978 -75.4378 127° Southeast 384 442 34,900  Level Miami Center
Tue 03:55:40 PM 23.6342 -75.3425 126° Southeast 384 442 34,900  Level Miami Center
Tue 03:56:41 PM 23.5706 -75.2489 127° Southeast 384 442 34,900  Level Miami Center
Tue 03:57:43 PM 23.5200 -75.1472 118° Southeast 383 441 34,900  Level Miami Center
Tue 03:58:45 PM 23.4697 -75.0447 118° Southeast 383 441 34,900  Level Miami Center
Tue 03:59:47 PM 23.4178 -74.9431 119° Southeast 383 441 34,900  Level Miami Center
Tue 04:00:48 PM 23.3656 -74.8431 120° Southeast 382 440 34,900  Level Miami Center
Tue 04:01:50 PM 23.3136 -74.7414 119° Southeast 382 440 34,900  Level Miami Center
Tue 04:02:52 PM 23.2628 -74.6397 119° Southeast 382 440 34,900  Level Miami Center
Tue 04:03:54 PM 23.1992 -74.5189 120° Southeast 382 440 34,900  Level Miami Center
Tue 04:04:56 PM 23.1472 -74.4181 119° Southeast 381 438 34,900  Level Miami Center
Tue 04:05:58 PM 23.0981 -74.3153 117° Southeast 381 438 34,900  Level Miami Center
Tue 04:06:59 PM 23.0425 -74.2167 121° Southeast 381 438 34,900  Level Miami Center
Tue 04:08:01 PM 22.9914 -74.1158 119° Southeast 381 438 34,900  Level Miami Center
Tue 04:09:03 PM 22.9417 -74.0150 118° Southeast 381 438 34,900  Level Miami Center
Tue 04:11:07 PM 22.8306 -73.7950 119° Southeast 380 437 34,900  Level Miami Center
Tue 04:12:09 PM 22.7786 -73.6958 120° Southeast 380 437 34,900  Level Miami Center
Tue 04:13:10 PM 22.7239 -73.5972 121° Southeast 380 437 34,900  Level Miami Center
Tue 04:14:12 PM 22.6594 -73.5058 127° Southeast 380 437 34,900  Level Miami Center
Tue 04:15:14 PM 22.5878 -73.4189 132° Southeast 381 438 34,900  Level Miami Center
Tue 04:16:16 PM 22.5189 -73.3317 131° Southeast 381 438 34,900  Level Miami Center
Tue 04:17:18 PM 22.4431 -73.2375 131° Southeast 383 441 34,900  Level Miami Center
Tue 04:18:20 PM 22.3736 -73.1514 131° Southeast 382 440 34,900  Level Miami Center
Tue 04:19:22 PM 22.3025 -73.0656 132° Southeast 382 440 34,900  Level Miami Center
Tue 04:20:24 PM 22.2200 -72.9611 130° Southeast 380 437 34,900  Level Miami Center
Tue 04:21:25 PM 22.1503 -72.8761 132° Southeast 381 438 34,900  Level Miami Center
Tue 04:22:27 PM 22.0814 -72.7906 131° Southeast 379 436 34,900  Level Miami Center
Tue 04:23:29 PM 22.0111 -72.7053 132° Southeast 380 437 34,900  Level Miami Center
Tue 04:24:31 PM 21.9436 -72.6192 130° Southeast 378 435 34,900  Level Miami Center
Tue 04:25:33 PM 21.8719 -72.5344 132° Southeast 379 436 34,900  Level Miami Center
Tue 04:26:35 PM 21.8011 -72.4492 132° Southeast 379 436 34,900  Level Miami Center
Tue 04:27:37 PM 21.7161 -72.3464 132° Southeast 380 437 34,900  Level Miami Center
Tue 04:28:39 PM 21.6456 -72.2614 132° Southeast 380 437 34,900  Level Miami Center
Tue 04:29:40 PM 21.5764 -72.1767 131° Southeast 379 436 34,900  Level Miami Center
Tue 04:30:42 PM 21.5083 -72.0911 131° Southeast 378 435 34,900  Level Miami Center
Tue 04:31:44 PM 21.4375 -72.0067 132° Southeast 378 435 34,900  Level Miami Center
Tue 04:32:46 PM 21.3653 -71.9214 132° Southeast 381 438 34,900  Level Miami Center
Tue 04:33:48 PM 21.2797 -71.8189 132° Southeast 383 441 34,900  Level Miami Center
Tue 04:34:50 PM 21.2094 -71.7347 132° Southeast 383 441 34,900  Level Miami Center
Tue 04:35:52 PM 21.1386 -71.6517 132° Southeast 383 441 34,900  Level Miami Center
Tue 04:36:53 PM 21.0683 -71.5664 131° Southeast 383 441 34,900  Level Miami Center
Tue 04:37:55 PM 20.9983 -71.4828 132° Southeast 383 441 34,900  Level Miami Center
Tue 04:38:57 PM 20.9278 -71.3983 132° Southeast 383 441 34,900  Level Miami Center
Tue 04:39:59 PM 20.8431 -71.2975 132° Southeast 383 441 34,900  Level Miami Center
Tue 04:41:01 PM 20.7742 -71.2147 132° Southeast 382 440 34,900  Level Miami Center
Tue 04:42:03 PM 20.7033 -71.1314 132° Southeast 381 438 34,900  Level Miami Center
Tue 04:43:05 PM 20.6336 -71.0486 132° Southeast 381 438 34,900  Level Miami Center
Tue 04:44:07 PM 20.5642 -70.9642 131° Southeast 380 437 34,900  Level Miami Center
Tue 04:45:08 PM 20.4936 -70.8825 133° Southeast 379 436 34,900  Level Miami Center
Tue 04:46:10 PM 20.4092 -70.7853 133° Southeast 378 435 34,900  Level Miami Center
Tue 04:47:12 PM 20.3186 -70.7347 152° Southeast 374 430 34,900  Level Miami Center
Tue 04:49:00 PM 20.1520 -70.6958 148° Southeast  Level FlightAware Approximate
Tue 04:56:00 PM 19.5438 -70.4180 148° Southeast  Level FlightAware Approximate
Tue 04:57:00 PM 19.4628 -70.3640 148° Southeast  Level FlightAware Approximate
Tue 04:58:00 PM 19.3817 -70.3100 148° Southeast  Level FlightAware Approximate
Tue 04:59:00 PM 19.2998 -70.2581 145° Southeast  Level FlightAware Approximate
Tue 05:00:00 PM 19.2216 -70.1995 145° Southeast  Level FlightAware Approximate
Tue 05:01:00 PM 19.1435 -70.1410 145° Southeast  Level FlightAware Approximate
Tue 05:02:00 PM 19.0607 -70.0905 148° Southeast  Level FlightAware Approximate
Tue 05:03:00 PM 18.9798 -70.0365 148° Southeast  Level FlightAware Approximate
Tue 05:04:00 PM 18.8995 -69.9813 146° Southeast  Level FlightAware Approximate
Tue 05:05:00 PM 18.8197 -69.9254 146° Southeast  Level FlightAware Approximate
Tue 05:06:00 PM 18.7393 -69.8706 148° Southeast  Level FlightAware Approximate
Tue 05:07:00 PM 18.6583 -69.8167 148° Southeast  Level FlightAware Approximate
Tue 05:08:00 PM 18.5794 -69.7595 145° Southeast  Level FlightAware Approximate
Tue 05:09:00 PM 18.5014 -69.7010 145° Southeast  Level FlightAware Approximate
Tue 05:10:00 PM 18.4297 -69.6689 150° Southeast  Level Estimated
Tue 05:11:00 PM 18.4297 -69.6689 126° Southeast  Level Estimated
Tue 05:12:00 PM 18.4297 -69.6689 126° Southeast  Level Estimated
Tue 05:13:00 PM 18.4297 -69.6689 126° Southeast  Level Estimated
Tue 05:14:00 PM 18.4297 -69.6689 126° Southeast  Level Estimated
Tue 05:15:00 PM 18.4297 -69.6689 126° Southeast  Level Estimated
Tue 05:16:00 PM 18.4297 -69.6689 126° Southeast  Level Estimated
Tue 05:17:00 PM 18.4297 -69.6689 126° Southeast  Level Estimated
Tue 05:18:00 PM 18.4297 -69.6689 126° Southeast  Level Estimated
Tue 05:19:00 PM 18.4297 -69.6689 126° Southeast  Level Estimated

Login

Don't have an account? Register now (free) for customized features, flight alerts, and more!